Time;durP1;ratioP1;P1;durP2;ratioP2;P2;SDS_P1;SDS_P2;PMS_P1;PMS_P2;Temp;Humidity;BMP_temperature;BMP_pressure;BME280_temperature;BME280_humidity;BME280_pressure;Samples;Min_cycle;Max_cycle;Signal;HPM_P1;HPM_P2
2022/09/01 00:01:45;;;;;;;3.15;1.80;;;;;;;;;;4914391;29;20697;-79
2022/09/01 00:04:12;;;;;;;4.47;1.73;;;;;;;;;;4913662;29;20083;-79
2022/09/01 00:06:39;;;;;;;4.85;1.58;;;;;;;;;;4913659;29;20135;-78
2022/09/01 00:09:06;;;;;;;4.22;1.40;;;;;;;;;;4915976;29;20108;-78
2022/09/01 00:11:32;;;;;;;3.22;1.50;;;;;;;;;;4912430;29;20515;-78
2022/09/01 00:14:00;;;;;;;2.30;1.50;;;;;;;14.37;76.58;68373.28;4912763;29;20051;-78
2022/09/01 00:16:26;;;;;;;1.95;1.10;;;;;;;14.36;76.59;68368.91;4913823;29;20040;-78
2022/09/01 00:18:53;;;;;;;2.88;1.30;;;;;;;14.33;76.82;68360.16;4915547;29;20052;-78
2022/09/01 00:21:20;;;;;;;2.97;1.52;;;;;;;;;;4915374;29;20115;-78
2022/09/01 00:23:46;;;;;;;2.85;1.45;;;;;;;14.25;77.04;68356.41;4915014;29;20074;-78
2022/09/01 00:26:13;;;;;;;3.42;1.60;;;;;;;14.21;77.41;68355.06;4915846;29;20072;-78
2022/09/01 00:28:39;;;;;;;5.03;1.60;;;;;;;14.18;77.68;68349.56;4914614;29;20107;-78
2022/09/01 00:31:06;;;;;;;4.38;1.60;;;;;;;14.14;77.59;68345.00;4915191;29;20040;-78
2022/09/01 00:33:33;;;;;;;4.47;1.90;;;;;;;14.13;77.80;68343.31;4914503;29;20088;-78
2022/09/01 00:35:58;;;;;;;4.45;1.85;;;;;;;14.15;77.79;68340.22;4914443;29;20051;-78
2022/09/01 00:38:24;;;;;;;3.10;1.58;;;;;;;14.16;77.34;68349.41;4913745;29;20507;-78
2022/09/01 00:40:50;;;;;;;6.18;1.98;;;;;;;14.15;77.48;68346.13;4911238;29;20236;-78
2022/09/01 00:43:19;;;;;;;3.33;1.65;;;;;;;;;;4914219;29;20807;-78
2022/09/01 00:45:44;;;;;;;4.90;2.03;;;;;;;14.09;77.50;68338.75;4913797;29;20047;-78
2022/09/01 00:48:10;;;;;;;6.45;1.70;;;;;;;14.14;77.09;68344.44;4913773;29;20048;-78
2022/09/01 00:50:36;;;;;;;3.33;1.30;;;;;;;14.10;77.31;68340.47;4909426;29;20044;-78
2022/09/01 00:53:05;;;;;;;4.03;1.48;;;;;;;14.07;77.25;68337.03;4921317;29;20055;-78
2022/09/01 00:55:31;;;;;;;5.93;2.00;;;;;;;;;;4923279;29;20044;-78
2022/09/01 00:57:58;;;;;;;3.50;2.10;;;;;;;;;;4912413;29;20048;-79
2022/09/01 01:00:25;;;;;;;2.45;1.60;;;;;;;;;;4912510;29;20511;-79
2022/09/01 01:02:54;;;;;;;1.83;1.20;;;;;;;;;;4911794;29;20709;-79
2022/09/01 01:05:20;;;;;;;3.85;1.58;;;;;;;;;;4915632;29;20036;-79
2022/09/01 01:07:46;;;;;;;3.67;1.67;;;;;;;;;;4913549;29;20048;-79
2022/09/01 01:10:14;;;;;;;5.03;1.83;;;;;;;14.02;77.09;68333.47;4917532;29;20040;-79
2022/09/01 01:12:42;;;;;;;6.30;1.70;;;;;;;13.98;76.99;68327.38;4933386;29;20135;-79
2022/09/01 01:15:13;;;;;;;4.40;1.70;;;;;;;13.99;77.06;68328.50;4915154;29;20048;-78
2022/09/01 01:17:39;;;;;;;3.95;1.77;;;;;;;14.02;76.70;68326.00;4910889;29;20044;-78
2022/09/01 01:23:18;;;;;;;3.03;1.60;;;;;;;13.93;76.86;68323.78;4923186;29;20125;-78
2022/09/01 01:25:47;;;;;;;3.53;1.65;;;;;;;;;;4910374;29;20040;-78
2022/09/01 01:28:12;;;;;;;3.67;1.67;;;;;;;;;;4914588;29;20088;-78
2022/09/01 01:30:40;;;;;;;4.40;1.95;;;;;;;;;;4913136;29;20067;-78
2022/09/01 01:33:06;;;;;;;2.95;1.98;;;;;;;13.82;77.18;68303.81;4912739;29;20044;-78
2022/09/01 01:35:33;;;;;;;3.40;1.70;;;;;;;13.85;76.92;68312.00;4912790;29;20132;-79
2022/09/01 01:38:00;;;;;;;4.10;2.03;;;;;;;;;;4912447;29;20594;-78
2022/09/01 01:40:27;;;;;;;2.80;1.73;;;;;;;13.82;76.82;68308.59;4913216;29;20047;-78
2022/09/01 01:42:53;;;;;;;4.20;2.03;;;;;;;13.81;76.73;68310.72;4912855;29;20123;-79
2022/09/01 01:45:21;;;;;;;3.38;1.85;;;;;;;13.84;76.42;68311.44;4911555;29;20048;-79
2022/09/01 01:47:52;;;;;;;3.83;1.85;;;;;;;13.87;76.32;68314.84;4912862;29;20044;-79
2022/09/01 01:50:18;;;;;;;4.28;1.52;;;;;;;;;;4913518;29;20048;-78
2022/09/01 01:52:43;;;;;;;3.03;1.75;;;;;;;13.84;76.20;68302.81;4906091;29;20440;-78
2022/09/01 01:55:09;;;;;;;4.93;1.83;;;;;;;;;;4913446;29;20052;-78
2022/09/01 01:57:36;;;;;;;3.47;1.55;;;;;;;;;;4911531;29;20052;-78
2022/09/01 02:00:02;;;;;;;2.90;1.73;;;;;;;;;;4913606;29;20074;-78
2022/09/01 02:02:27;;;;;;;3.17;1.90;;;;;;;;;;4911561;29;20068;-79
2022/09/01 02:04:53;;;;;;;2.92;1.70;;;;;;;;;;4913172;29;20083;-78
2022/09/01 02:07:19;;;;;;;5.20;1.98;;;;;;;13.78;75.72;68304.59;4913291;29;20060;-78
2022/09/01 02:09:46;;;;;;;3.67;1.70;;;;;;;13.75;75.64;68301.78;4913563;29;20103;-77
2022/09/01 02:12:12;;;;;;;2.85;1.50;;;;;;;;;;4913376;29;20062;-78
2022/09/01 02:14:37;;;;;;;3.35;1.90;;;;;;;13.76;75.43;68302.34;4911615;29;20667;-78
2022/09/01 02:17:05;;;;;;;3.05;1.60;;;;;;;13.74;75.42;68295.28;4911071;29;20059;-78
2022/09/01 02:19:32;;;;;;;3.30;1.70;;;;;;;13.73;75.24;68299.50;4912076;29;20044;-78
2022/09/01 02:21:59;;;;;;;3.78;1.80;;;;;;;13.74;75.14;68300.63;4911502;29;20135;-78
2022/09/01 02:24:25;;;;;;;4.32;2.03;;;;;;;13.74;75.00;68300.63;4908829;29;20131;-78
2022/09/01 02:26:51;;;;;;;2.35;1.30;;;;;;;13.69;74.94;68297.59;4908776;29;20048;-78
2022/09/01 02:29:20;;;;;;;2.78;1.45;;;;;;;;;;4910229;29;20819;-79
2022/09/01 02:31:49;;;;;;;4.38;1.63;;;;;;;13.68;74.85;68296.47;4914456;29;20044;-79
2022/09/01 02:34:15;;;;;;;4.40;1.58;;;;;;;13.59;75.13;68285.66;4910313;29;20131;-78
2022/09/01 02:36:48;;;;;;;3.05;1.75;;;;;;;;;;4907202;29;20116;-79
2022/09/01 02:39:16;;;;;;;3.33;1.60;;;;;;;13.60;74.99;68287.38;4912818;29;20079;-78
2022/09/01 02:41:42;;;;;;;3.85;1.60;;;;;;;13.56;75.20;68279.59;4913339;29;20047;-78
2022/09/01 02:44:10;;;;;;;2.42;1.63;;;;;;;;;;4914654;29;20039;-78
2022/09/01 02:46:40;;;;;;;2.47;1.67;;;;;;;13.53;74.90;68277.31;4910474;29;20051;-79
2022/09/01 02:49:13;;;;;;;1.98;1.30;;;;;;;;;;4913044;29;20121;-78
2022/09/01 02:51:39;;;;;;;4.35;2.08;;;;;;;;;;4912838;29;20123;-79
2022/09/01 02:54:05;;;;;;;3.65;1.65;;;;;;;13.50;74.58;68268.53;4913339;29;20116;-78
2022/09/01 02:56:30;;;;;;;4.60;1.73;;;;;;;13.47;74.78;68272.59;4929944;29;20039;-78
2022/09/01 02:58:56;;;;;;;3.78;1.58;;;;;;;13.46;74.85;68263.41;4913065;29;20213;-79
2022/09/01 03:01:25;;;;;;;2.45;1.48;;;;;;;13.39;74.67;68263.50;4913369;29;20028;-78
2022/09/01 03:03:53;;;;;;;4.35;1.60;;;;;;;13.31;75.04;68252.84;4913395;29;20584;-78
2022/09/01 03:06:22;;;;;;;2.60;1.50;;;;;;;13.31;75.19;68255.50;4911461;29;20036;-79
2022/09/01 03:08:49;;;;;;;4.75;1.65;;;;;;;;;;4915975;29;20389;-78
2022/09/01 03:11:14;;;;;;;4.15;1.33;;;;;;;13.24;75.21;68244.88;4926438;29;20062;-79
2022/09/01 03:13:40;;;;;;;2.95;1.50;;;;;;;13.28;75.20;68248.88;4922068;29;20056;-78
2022/09/01 03:16:07;;;;;;;4.18;1.73;;;;;;;13.27;75.21;68247.72;4913865;29;20507;-79
2022/09/01 03:18:33;;;;;;;3.28;1.73;;;;;;;;;;4913410;29;20044;-78
2022/09/01 03:20:58;;;;;;;4.03;1.70;;;;;;;13.26;75.09;68249.84;4909806;29;20103;-78
2022/09/01 03:23:26;;;;;;;4.13;1.75;;;;;;;;;;4911248;29;20044;-79
2022/09/01 03:25:53;;;;;;;4.32;1.60;;;;;;;13.18;75.21;68243.41;4910863;29;20064;-78
2022/09/01 03:28:18;;;;;;;4.00;1.60;;;;;;;13.14;75.29;68232.91;4913235;29;20056;-79
2022/09/01 03:30:45;;;;;;;2.95;1.60;;;;;;;;;;4913899;29;20509;-78
2022/09/01 03:33:10;;;;;;;3.40;1.60;;;;;;;13.14;75.12;68232.91;4908705;29;20044;-78
2022/09/01 03:35:36;;;;;;;2.17;1.35;;;;;;;13.10;75.29;68224.16;4911110;29;20475;-79
2022/09/01 03:38:02;;;;;;;4.13;1.63;;;;;;;13.05;75.51;68223.81;4912374;29;20581;-78
2022/09/01 03:40:35;;;;;;;3.38;1.80;;;;;;;13.00;75.81;68217.56;4914092;29;20060;-78
2022/09/01 03:43:09;;;;;;;3.55;1.70;;;;;;;12.97;75.95;68214.72;4914759;29;20067;-78
2022/09/01 03:45:37;;;;;;;3.97;1.77;;;;;;;12.96;76.21;68215.69;4909981;29;20563;-76
2022/09/01 03:48:07;;;;;;;3.35;1.65;;;;;;;12.96;75.88;68213.03;4912007;29;20157;-79
2022/09/01 03:50:38;;;;;;;6.05;2.08;;;;;;;12.91;75.98;68210.00;4909673;29;20040;-78
2022/09/01 03:53:04;;;;;;;2.60;1.20;;;;;;;12.84;76.24;68199.94;4910015;29;20112;-78
2022/09/01 03:55:33;;;;;;;3.60;1.73;;;;;;;12.83;76.36;68199.38;4912668;29;20776;-78
2022/09/01 03:58:06;;;;;;;3.35;2.03;;;;;;;12.79;76.67;68194.25;4912987;29;20067;-79
2022/09/01 04:00:39;;;;;;;7.55;1.70;;;;;;;12.75;76.66;68190.28;4914045;29;20044;-79
2022/09/01 04:03:08;;;;;;;2.97;1.70;;;;;;;12.70;76.93;68189.94;4922096;29;20112;-79
2022/09/01 04:05:34;;;;;;;3.45;1.58;;;;;;;;;;4910327;29;20032;-79
2022/09/01 04:08:04;;;;;;;3.67;2.00;;;;;;;12.65;77.14;68179.47;4914016;29;20506;-79
2022/09/01 04:10:31;;;;;;;3.97;1.83;;;;;;;;;;4916472;29;20488;-81
2022/09/01 04:12:58;;;;;;;3.85;1.80;;;;;;;12.53;77.54;68165.84;4926138;29;20052;-78
2022/09/01 04:15:24;;;;;;;6.30;2.00;;;;;;;12.55;77.37;68168.13;4908107;29;20048;-78
2022/09/01 04:20:46;;;;;;;2.85;1.95;;;;;;;12.50;77.60;68162.44;4912128;29;20064;-79
2022/09/01 04:23:22;;;;;;;4.53;2.08;;;;;;;;;;4913380;29;20036;-80
2022/09/01 04:25:49;;;;;;;2.83;1.80;;;;;;;12.36;78.11;68149.19;4912695;29;20048;-78
2022/09/01 04:28:21;;;;;;;3.53;2.35;;;;;;;12.39;78.01;68155.84;4907049;29;20070;-78
2022/09/01 04:30:57;;;;;;;3.70;2.03;;;;;;;12.38;77.95;68152.03;4908416;29;20048;-78
2022/09/01 04:33:26;;;;;;;2.88;1.90;;;;;;;;;;4908399;29;20116;-78
2022/09/01 04:35:55;;;;;;;4.35;1.98;;;;;;;12.38;78.15;68148.81;4916608;29;20044;-79
2022/09/01 04:38:23;;;;;;;3.15;1.85;;;;;;;12.36;78.40;68146.53;4911670;29;20515;-78
2022/09/01 04:40:50;;;;;;;3.30;1.97;;;;;;;12.31;78.45;68144.06;4939000;29;20565;-78
2022/09/01 04:43:16;;;;;;;5.82;2.30;;;;;;;12.29;78.56;68141.81;4914815;29;20037;-79
2022/09/01 04:45:44;;;;;;;3.28;2.00;;;;;;;12.28;78.49;68138.00;4912341;29;20059;-79
2022/09/01 04:48:09;;;;;;;4.10;2.33;;;;;;;;;;4922895;29;20052;-80
2022/09/01 04:50:36;;;;;;;4.15;2.50;;;;;;;12.25;78.65;68137.25;4916483;29;20100;-78
2022/09/01 04:53:05;;;;;;;5.40;2.30;;;;;;;12.27;78.63;68139.53;4920533;29;20040;-79
2022/09/01 04:55:31;;;;;;;3.63;2.25;;;;;;;12.24;78.90;68132.88;4919914;29;20037;-80
2022/09/01 04:57:57;;;;;;;3.75;2.15;;;;;;;;;;4919993;29;20055;-79
2022/09/01 05:00:25;;;;;;;5.35;2.40;;;;;;;12.24;78.88;68132.88;4922939;29;20084;-78
2022/09/01 05:02:54;;;;;;;3.92;2.03;;;;;;;12.25;78.81;68139.91;4921920;29;20519;-79
2022/09/01 05:05:21;;;;;;;4.28;2.40;;;;;;;12.25;78.86;68139.91;4919776;29;20572;-78
2022/09/01 05:07:53;;;;;;;2.88;2.05;;;;;;;12.25;78.89;68136.69;4915414;29;20592;-78
2022/09/01 05:10:20;;;;;;;4.93;2.45;;;;;;;12.28;78.81;68138.00;4920023;29;20040;-79
2022/09/01 05:12:45;;;;;;;3.63;2.30;;;;;;;12.28;78.90;68142.75;4912647;29;20057;-79
2022/09/01 05:15:12;;;;;;;6.50;2.40;;;;;;;;;;4920037;29;20538;-79
2022/09/01 05:17:38;;;;;;;4.38;2.05;;;;;;;12.30;79.00;68140.28;4920020;29;20123;-79
2022/09/01 05:20:04;;;;;;;6.30;2.50;;;;;;;12.30;78.89;68140.28;4921775;29;20052;-79
2022/09/01 05:22:30;;;;;;;4.03;2.42;;;;;;;12.32;78.94;68142.56;4919106;29;20389;-79
2022/09/01 05:25:02;;;;;;;6.00;2.58;;;;;;;12.30;78.83;68145.03;4922594;29;20183;-80
2022/09/01 05:27:28;;;;;;;3.28;2.10;;;;;;;12.31;78.94;68141.41;4938653;29;20310;-79
2022/09/01 05:29:53;;;;;;;4.85;2.20;;;;;;;12.39;78.70;68150.50;4939511;29;20079;-79
2022/09/01 05:32:20;;;;;;;4.63;2.40;;;;;;;12.38;78.73;68149.38;4942171;29;20044;-79
2022/09/01 05:34:46;;;;;;;4.07;2.50;;;;;;;12.46;78.60;68157.31;4922601;29;20146;-79
2022/09/01 05:37:14;;;;;;;6.38;2.40;;;;;;;12.52;78.38;68169.50;4941127;29;20055;-79
2022/09/01 05:39:40;;;;;;;4.57;2.50;;;;;;;12.58;77.99;68174.19;4936095;29;20040;-79
2022/09/01 05:42:09;;;;;;;3.40;1.90;;;;;;;12.62;77.69;68176.06;4923223;29;20685;-79
2022/09/01 05:44:35;;;;;;;7.65;2.80;;;;;;;12.71;77.27;68185.72;4939478;29;20138;-80
2022/09/01 05:47:02;;;;;;;3.08;1.80;;;;;;;12.73;77.29;68182.66;4940766;29;20047;-79
2022/09/01 05:49:27;;;;;;;6.10;2.38;;;;;;;12.81;76.86;68197.09;4936098;29;20039;-79
2022/09/01 05:51:56;;;;;;;5.30;2.55;;;;;;;12.86;76.99;68202.81;4925276;29;20068;-78
2022/09/01 05:54:26;;;;;;;5.47;2.45;;;;;;;12.90;76.66;68209.44;4927086;29;20443;-79
2022/09/01 05:56:52;;;;;;;4.90;2.40;;;;;;;12.97;76.66;68214.72;4931011;29;20139;-78
2022/09/01 05:59:18;;;;;;;5.63;2.75;;;;;;;;;;4933727;29;20103;-78
2022/09/01 06:01:46;;;;;;;7.72;2.38;;;;;;;13.09;76.03;68222.47;4933300;29;20058;-79
2022/09/01 06:04:12;;;;;;;12.02;2.55;;;;;;;13.13;75.97;68232.34;4934676;29;20558;-79
2022/09/01 06:06:39;;;;;;;7.75;2.60;;;;;;;;;;4934347;29;20071;-79
2022/09/01 06:09:06;;;;;;;4.80;2.08;;;;;;;13.32;75.26;68253.41;4932070;29;20047;-79
2022/09/01 06:11:32;;;;;;;3.38;2.20;;;;;;;13.41;75.07;68263.09;4935778;29;20171;-79
2022/09/01 06:13:58;;;;;;;6.47;2.72;;;;;;;13.47;74.77;68265.13;4932249;29;20044;-79
2022/09/01 06:16:25;;;;;;;5.03;2.30;;;;;;;13.56;74.51;68279.59;4921023;29;20040;-79
2022/09/01 06:18:52;;;;;;;5.30;2.58;;;;;;;13.64;73.91;68291.94;4930049;29;20050;-79
2022/09/01 06:21:20;;;;;;;5.47;2.42;;;;;;;13.74;73.63;68303.28;4921167;29;20063;-79
2022/09/01 06:23:45;;;;;;;4.40;2.28;;;;;;;;;;4920671;29;20044;-80
2022/09/01 06:26:17;;;;;;;5.82;2.50;;;;;;;;;;4917286;29;20051;-79
2022/09/01 06:28:44;;;;;;;3.05;1.80;;;;;;;14.00;72.77;68329.06;4913090;29;20048;-79
2022/09/01 06:31:10;;;;;;;5.05;2.67;;;;;;;14.12;72.61;68336.81;4923040;29;20641;-79
2022/09/01 06:33:37;;;;;;;5.65;2.13;;;;;;;14.28;72.10;68360.38;4910082;29;20477;-79
2022/09/01 06:36:03;;;;;;;3.33;1.65;;;;;;;;;;4915278;29;20567;-79
2022/09/01 06:38:28;;;;;;;8.73;2.58;;;;;;;14.53;70.95;68388.28;4911597;29;20044;-79
2022/09/01 06:41:11;;;;;;;5.72;2.05;;;;;;;14.66;70.53;68403.06;4911136;29;20409;-79
2022/09/01 06:43:43;;;;;;;4.75;2.00;;;;;;;14.78;70.26;68416.16;4915154;29;20044;-80
2022/09/01 06:46:08;;;;;;;4.18;2.20;;;;;;;14.88;69.58;68427.00;4933257;29;20547;-79
2022/09/01 06:48:45;;;;;;;5.70;1.90;;;;;;;;;;4913774;29;20156;-80
2022/09/01 06:51:16;;;;;;;4.25;1.92;;;;;;;15.12;69.10;68453.75;4912647;29;20100;-79
2022/09/01 06:53:43;;;;;;;4.43;1.90;;;;;;;15.20;68.95;68462.31;4926703;29;20051;-79
2022/09/01 06:56:12;;;;;;;5.80;1.90;;;;;;;15.29;68.29;68472.56;4912798;29;20459;-79
2022/09/01 06:58:46;;;;;;;5.97;2.38;;;;;;;15.39;68.40;68475.31;4912008;29;20059;-79
2022/09/01 07:01:14;;;;;;;4.50;1.70;;;;;;;15.54;67.89;68500.47;4916569;29;20036;-80
2022/09/01 07:03:40;;;;;;;7.65;2.00;;;;;;;15.66;67.47;68518.94;4927153;29;20032;-79
2022/09/01 07:06:06;;;;;;;3.65;2.05;;;;;;;15.78;67.18;68527.25;4912850;29;20063;-80
2022/09/01 07:08:38;;;;;;;4.28;1.63;;;;;;;;;;4914776;29;20459;-79
2022/09/01 07:11:06;;;;;;;6.88;2.20;;;;;;;16.09;65.99;68562.03;4915450;29;20043;-79
2022/09/01 07:13:33;;;;;;;3.72;1.80;;;;;;;16.19;65.53;68567.47;4915093;29;20072;-80
2022/09/01 07:15:59;;;;;;;5.78;1.98;;;;;;;;;;4915359;29;20044;-80
2022/09/01 07:18:25;;;;;;;5.20;2.03;;;;;;;;;;4913950;29;20123;-80
2022/09/01 07:20:51;;;;;;;3.60;1.42;;;;;;;16.58;64.04;68608.69;4897761;29;20519;-79
2022/09/01 07:23:23;;;;;;;4.25;1.40;;;;;;;16.77;63.80;68631.91;4898688;29;20059;-79
2022/09/01 07:25:53;;;;;;;3.20;1.45;;;;;;;;;;4910033;29;20048;-79
2022/09/01 07:28:22;;;;;;;4.57;1.27;;;;;;;17.04;62.63;68668.09;4909346;29;20055;-79
2022/09/01 07:30:51;;;;;;;3.50;1.77;;;;;;;17.13;62.31;68678.34;4900963;29;20044;-79
2022/09/01 07:33:23;;;;;;;3.75;1.15;;;;;;;17.27;62.08;68687.81;4901450;29;20051;-79
2022/09/01 07:35:51;;;;;;;2.58;1.50;;;;;;;;;;4911827;29;20055;-79
2022/09/01 07:38:18;;;;;;;4.05;1.30;;;;;;;17.48;61.12;68711.75;4911263;29;20063;-79
2022/09/01 07:40:44;;;;;;;6.82;1.70;;;;;;;17.63;60.45;68733.69;4911422;29;20066;-79
2022/09/01 07:43:23;;;;;;;4.05;1.00;;;;;;;17.69;60.95;68735.16;4911893;29;20044;-79
2022/09/01 07:45:58;;;;;;;3.17;1.20;;;;;;;17.89;59.64;68756.84;4905244;29;20048;-79
2022/09/01 07:48:24;;;;;;;5.10;1.10;;;;;;;;;;4908026;29;20404;-79
2022/09/01 07:50:51;;;;;;;2.58;1.02;;;;;;;18.09;58.92;68787.75;4905997;29;20044;-79
2022/09/01 07:53:24;;;;;;;3.30;1.30;;;;;;;18.32;58.27;68804.81;4908690;29;20040;-79
2022/09/01 07:55:51;;;;;;;2.60;0.90;;;;;;;18.44;57.56;68818.50;4906308;29;20048;-79
2022/09/01 07:58:19;;;;;;;2.80;1.00;;;;;;;18.51;57.10;68825.94;4910395;29;20044;-79
2022/09/01 08:00:46;;;;;;;3.42;1.00;;;;;;;18.59;57.00;68841.03;4908616;29;20079;-79
2022/09/01 08:03:17;;;;;;;2.42;0.90;;;;;;;18.68;56.86;68845.91;4909354;29;20068;-80
2022/09/01 08:05:43;;;;;;;2.55;1.05;;;;;;;;;;4905140;29;20492;-79
2022/09/01 08:08:08;;;;;;;5.90;0.85;;;;;;;;;;4907624;29;20127;-79
2022/09/01 08:10:36;;;;;;;2.33;1.02;;;;;;;18.93;55.99;68873.91;4911235;29;20538;-79
2022/09/01 08:13:02;;;;;;;4.50;1.10;;;;;;;;;;4928330;29;20531;-79
2022/09/01 08:15:27;;;;;;;4.82;1.10;;;;;;;19.20;55.37;68903.63;4913215;29;20075;-79
2022/09/01 08:17:52;;;;;;;3.45;0.93;;;;;;;;;;4912364;29;20464;-78
2022/09/01 08:20:18;;;;;;;5.53;0.90;;;;;;;19.42;54.25;68928.19;4912494;29;20047;-79
2022/09/01 08:22:43;;;;;;;3.58;0.80;;;;;;;19.59;53.95;68947.63;4909487;29;20591;-80
2022/09/01 08:25:09;;;;;;;2.75;1.05;;;;;;;19.79;52.51;68969.34;4896341;29;20047;-79
2022/09/01 08:27:37;;;;;;;4.40;1.00;;;;;;;19.75;52.64;68964.78;4909844;29;20048;-79
2022/09/01 08:30:09;;;;;;;1.83;0.80;;;;;;;19.82;52.69;68973.34;4913455;29;20127;-79
2022/09/01 08:32:35;;;;;;;4.35;0.98;;;;;;;19.99;52.34;68992.19;4908310;29;20539;-79
2022/09/01 08:35:06;;;;;;;2.67;0.90;;;;;;;20.07;51.50;68998.06;4905989;29;20108;-79
2022/09/01 08:37:31;;;;;;;1.52;0.80;;;;;;;20.09;50.71;69003.06;4909910;29;20131;-78
2022/09/01 08:39:57;;;;;;;2.10;0.80;;;;;;;20.22;49.13;69017.34;4912819;29;20520;-79
2022/09/01 08:42:47;;;;;;;2.70;1.00;;;;;;;20.29;49.46;69023.22;4896374;29;20044;-79
2022/09/01 08:45:39;;;;;;;2.80;0.93;;;;;;;20.41;49.54;69038.50;4895723;29;20048;-79
2022/09/01 08:48:20;;;;;;;3.10;1.02;;;;;;;20.50;49.73;69046.09;4913109;29;20080;-79
2022/09/01 08:50:53;;;;;;;1.85;0.88;;;;;;;20.60;49.08;69056.97;4931875;29;20050;-79
2022/09/01 08:53:33;;;;;;;3.88;0.77;;;;;;;20.76;48.24;69077.41;4927552;29;20035;-79
2022/09/01 08:55:58;;;;;;;1.90;0.73;;;;;;;20.88;47.66;69091.69;4925837;29;20619;-79
2022/09/01 08:58:24;;;;;;;3.83;0.90;;;;;;;;;;4914538;29;20047;-79
2022/09/01 09:01:02;;;;;;;3.72;0.60;;;;;;;20.92;47.23;69096.28;4914045;29;20052;-80
2022/09/01 09:03:39;;;;;;;3.65;0.90;;;;;;;;;;4914453;29;20094;-79
2022/09/01 09:06:27;;;;;;;1.80;0.80;;;;;;;21.17;46.32;69124.28;4910742;29;20044;-79
2022/09/01 09:08:53;;;;;;;3.00;0.80;;;;;;;21.14;46.18;69118.16;4927054;29;20043;-79
2022/09/01 09:11:24;;;;;;;2.65;0.90;;;;;;;;;;4936181;29;20035;-80
2022/09/01 09:13:59;;;;;;;4.57;1.13;;;;;;;;;;4930184;29;20048;-79
2022/09/01 09:16:34;;;;;;;3.83;0.90;;;;;;;21.40;44.28;69149.50;4934059;29;20685;-80
2022/09/01 09:19:09;;;;;;;1.85;0.77;;;;;;;21.46;45.39;69153.09;4916766;29;20475;-80
2022/09/01 09:21:42;;;;;;;2.42;0.75;;;;;;;21.67;44.20;69179.25;4916995;29;20051;-80
2022/09/01 09:24:46;;;;;;;3.53;0.70;;;;;;;21.69;43.43;69179.41;4934255;29;20050;-80
2022/09/01 09:27:25;;;;;;;1.55;0.60;;;;;;;;;;4907158;29;20621;-80
2022/09/01 09:29:56;;;;;;;5.65;0.77;;;;;;;21.93;43.75;69208.44;4929907;29;20362;-78
2022/09/01 09:32:23;;;;;;;3.58;0.80;;;;;;;;;;4919837;29;20669;-78
2022/09/01 09:34:49;;;;;;;1.27;0.60;;;;;;;;;;4908808;29;20720;-78
2022/09/01 09:37:25;;;;;;;4.22;1.00;;;;;;;22.00;42.63;69214.31;4907973;29;20040;-77
2022/09/01 09:40:14;;;;;;;2.03;0.57;;;;;;;22.19;42.96;69234.94;4908105;29;20040;-78
2022/09/01 09:42:55;;;;;;;2.33;0.68;;;;;;;22.26;41.55;69246.25;4907469;29;20048;-79
2022/09/01 09:45:23;;;;;;;2.95;0.90;;;;;;;22.28;41.07;69245.81;4906253;29;20040;-78
2022/09/01 09:47:49;;;;;;;3.22;0.95;;;;;;;22.24;41.20;69241.25;4910020;29;20051;-78
2022/09/01 09:50:18;;;;;;;3.67;0.90;;;;;;;;;;4909971;29;20075;-78
2022/09/01 09:52:45;;;;;;;2.97;0.77;;;;;;;22.26;40.78;69245.66;4908565;29;20051;-78
2022/09/01 09:55:23;;;;;;;3.90;1.02;;;;;;;22.19;41.18;69234.94;4907111;29;20052;-77
2022/09/01 09:57:51;;;;;;;5.20;1.30;;;;;;;22.26;41.56;69243.53;4906222;29;20386;-78
2022/09/01 10:00:33;;;;;;;3.80;1.40;;;;;;;22.43;41.34;69264.56;4911296;29;20040;-77
2022/09/01 10:03:02;;;;;;;2.30;0.70;;;;;;;22.51;40.91;69271.59;4921774;29;20123;-78
2022/09/01 10:05:36;;;;;;;3.78;1.02;;;;;;;22.49;41.57;69268.72;4915434;29;20043;-78
2022/09/01 10:08:03;;;;;;;5.65;2.67;;;;;;;22.56;41.45;69276.16;4927175;29;21004;-78
2022/09/01 10:10:43;;;;;;;4.25;0.90;;;;;;;22.52;41.65;69275.44;4919692;29;20040;-78
2022/09/01 10:13:13;;;;;;;3.30;1.30;;;;;;;;;;4931249;29;20055;-78
2022/09/01 10:15:40;;;;;;;2.25;0.73;;;;;;;22.90;40.87;69317.84;4934728;29;20059;-78
2022/09/01 10:18:13;;;;;;;4.72;1.00;;;;;;;23.00;40.20;69326.00;4932319;29;20102;-78
2022/09/01 10:20:47;;;;;;;1.52;0.80;;;;;;;23.13;39.81;69343.63;4931229;29;20071;-78
2022/09/01 10:23:13;;;;;;;4.07;0.88;;;;;;;23.17;39.92;69348.19;4932669;29;20044;-78
2022/09/01 10:25:41;;;;;;;5.10;1.00;;;;;;;23.32;39.84;69364.25;4932247;29;20056;-78
2022/09/01 10:28:23;;;;;;;3.92;0.88;;;;;;;23.49;39.42;69380.44;4934936;29;20039;-78
2022/09/01 10:30:51;;;;;;;1.27;0.63;;;;;;;23.55;39.04;69384.59;4932236;29;20090;-78
2022/09/01 10:33:18;;;;;;;3.60;1.02;;;;;;;23.64;38.63;69394.91;4930504;29;20403;-78
2022/09/01 10:35:47;;;;;;;2.70;0.80;;;;;;;23.61;38.99;69394.75;4913198;29;20044;-78
2022/09/01 10:38:19;;;;;;;3.83;0.80;;;;;;;23.55;38.10;69390.59;4930218;29;20043;-78
2022/09/01 10:41:05;;;;;;;1.63;0.75;;;;;;;23.61;38.33;69397.47;4928996;29;20044;-78
2022/09/01 10:43:40;;;;;;;3.22;0.75;;;;;;;23.78;38.43;69410.97;4927031;29;20039;-78
2022/09/01 10:46:08;;;;;;;3.15;0.90;;;;;;;23.76;38.26;69414.09;4927747;29;20082;-78
2022/09/01 10:48:37;;;;;;;4.68;0.65;;;;;;;23.77;37.86;69411.97;4931546;29;20039;-78
2022/09/01 10:51:11;;;;;;;2.60;0.73;;;;;;;23.69;38.10;69400.06;4932137;29;20492;-78
2022/09/01 10:53:39;;;;;;;4.38;0.70;;;;;;;23.81;37.24;69417.13;4931635;29;20079;-78
2022/09/01 10:56:20;;;;;;;2.60;0.70;;;;;;;23.92;37.03;69429.16;4932230;29;20054;-77
2022/09/01 10:58:50;;;;;;;1.80;0.80;;;;;;;;;;4932087;29;20063;-78
2022/09/01 11:01:15;;;;;;;4.32;0.90;;;;;;;23.91;36.59;69430.16;4933724;29;20043;-78
2022/09/01 11:03:52;;;;;;;2.92;0.65;;;;;;;23.85;36.52;69424.44;4932910;29;20040;-78
2022/09/01 11:06:57;;;;;;;3.00;1.00;;;;;;;23.78;36.75;69413.13;4935327;29;20055;-78
2022/09/01 11:09:36;;;;;;;1.77;0.57;;;;;;;23.81;36.79;69419.28;4918765;29;20058;-77
2022/09/01 11:12:16;;;;;;;3.03;0.70;;;;;;;23.95;36.60;69429.31;4922944;29;20051;-78
2022/09/01 11:14:59;;;;;;;4.25;0.70;;;;;;;24.08;36.33;69450.22;4912397;29;20040;-78
2022/09/01 11:17:31;;;;;;;1.63;0.73;;;;;;;24.22;34.94;69462.41;4933164;29;20099;-78
2022/09/01 11:20:09;;;;;;;1.80;0.80;;;;;;;24.04;34.87;69436.91;4930472;29;20577;-77
2022/09/01 11:22:42;;;;;;;1.95;0.70;;;;;;;24.06;35.64;69444.66;4930800;29;20078;-78
2022/09/01 11:25:13;;;;;;;1.75;0.85;;;;;;;24.00;35.97;69440.50;4913606;29;20547;-79
2022/09/01 11:27:47;;;;;;;1.23;0.40;;;;;;;;;;4932329;29;20054;-78
2022/09/01 11:30:54;;;;;;;2.85;0.98;;;;;;;23.89;36.63;69425.72;4928170;29;20040;-78
2022/09/01 11:33:38;;;;;;;1.60;0.80;;;;;;;24.03;36.96;69439.06;4893574;29;20449;-79
2022/09/01 11:36:15;;;;;;;1.90;0.60;;;;;;;24.10;36.37;69452.50;4920585;29;20448;-78
2022/09/01 11:38:49;;;;;;;2.08;0.73;;;;;;;24.21;36.30;69461.25;4931983;29;20043;-79
2022/09/01 11:41:31;;;;;;;2.08;0.70;;;;;;;24.41;36.14;69486.91;4909569;29;20048;-79
2022/09/01 11:43:58;;;;;;;2.25;0.68;;;;;;;24.54;35.68;69501.25;4896859;29;20041;-79
2022/09/01 11:46:33;;;;;;;2.85;0.85;;;;;;;24.54;35.01;69501.84;4916791;29;20043;-79
2022/09/01 11:49:06;;;;;;;2.10;1.00;;;;;;;24.75;34.76;69525.34;4918493;29;20130;-79
2022/09/01 11:51:46;;;;;;;1.60;0.80;;;;;;;24.67;35.49;69510.16;4917476;29;20036;-78
2022/09/01 11:54:13;;;;;;;1.25;0.60;;;;;;;24.65;35.99;69510.59;4934112;29;20097;-79
2022/09/01 11:56:39;;;;;;;3.67;0.77;;;;;;;24.64;35.24;69512.75;4934660;29;20048;-79
2022/09/01 11:59:05;;;;;;;1.85;0.70;;;;;;;24.41;35.81;69483.63;4940162;29;20043;-78
2022/09/01 12:01:32;;;;;;;2.40;0.63;;;;;;;;;;4938349;29;20043;-78
2022/09/01 12:04:16;;;;;;;1.00;0.50;;;;;;;;;;4932474;29;20071;-79
2022/09/01 12:06:54;;;;;;;2.28;0.90;;;;;;;24.75;35.84;69522.63;4938580;29;20043;-78
2022/09/01 12:09:20;;;;;;;3.00;0.90;;;;;;;24.89;34.98;69537.56;4938151;29;20044;-78
2022/09/01 12:11:45;;;;;;;1.73;0.70;;;;;;;24.56;34.79;69500.84;4936409;29;20042;-78
2022/09/01 12:14:19;;;;;;;3.95;0.77;;;;;;;24.23;35.93;69464.13;4937826;29;20095;-78
2022/09/01 12:16:56;;;;;;;4.05;0.98;;;;;;;24.40;36.88;69483.06;4936547;29;20036;-77
2022/09/01 12:19:25;;;;;;;3.85;0.88;;;;;;;24.83;35.42;69533.97;4938536;29;20048;-78
2022/09/01 12:22:13;;;;;;;3.05;0.77;;;;;;;25.12;35.22;69560.63;4914701;29;20384;-78
2022/09/01 12:24:43;;;;;;;;;;;;;;;25.24;34.52;69577.16;4936171;29;20047;-79
2022/09/01 12:27:08;;;;;;;1.85;0.75;;;;;;;25.19;34.76;69574.69;4934444;29;19919;-78
2022/09/01 12:29:34;;;;;;;2.35;0.75;;;;;;;25.36;34.03;69590.34;4932555;29;20063;-78